Terminal Aerodrome Forecast
Issued by NWS

Home | Current Version | Previous Version | Text Only | Print | Product List | Glossary On
Versions: 1 2 3 4 5 6 7 8 9 10 11 12 13 14
000
FTUS46 KSEW 181100
TAFPAE
TAF
KPAE 181120Z 1812/1912 16009KT 6SM BR VCSH SCT006 BKN015 OVC030
      TEMPO 1812/1816 BKN005 OVC012
     FM181800 15009KT P6SM SCT012 BKN035 OVC070
     FM190100 15012G22KT P6SM -RA OVC035
     FM190600 18013G20KT 6SM -RA BR OVC020=

USA.gov is the U.S. government's official web portal to all federal, state and local government web resources and services.